createdAt,value
2018-08-16T00:00:02.141Z,76.41
2018-08-16T00:06:07.756Z,76.09
2018-08-16T00:12:12.613Z,77.30
2018-08-16T00:18:17.834Z,77.88
2018-08-16T00:24:22.663Z,77.46
2018-08-16T00:30:27.421Z,76.97
2018-08-16T00:36:33.774Z,77.60
2018-08-16T00:42:38.977Z,78.15
2018-08-16T00:48:43.746Z,78.45
2018-08-16T00:54:48.542Z,79.03
2018-08-16T01:00:53.326Z,79.09
2018-08-16T01:06:58.133Z,80.27
2018-08-16T01:13:03.915Z,79.74
2018-08-16T01:19:08.954Z,79.53
2018-08-16T01:25:14.461Z,80.23
2018-08-16T01:31:19.197Z,80.31
2018-08-16T01:37:24.108Z,78.80
2018-08-16T01:43:29.453Z,80.75
2018-08-16T01:49:35.792Z,79.09
2018-08-16T01:55:41.005Z,78.86
2018-08-16T02:01:46.000Z,80.01
2018-08-16T02:07:51.101Z,80.23
2018-08-16T02:13:56.193Z,80.37
2018-08-16T02:20:01.745Z,80.39
2018-08-16T02:26:06.757Z,81.16
2018-08-16T02:32:12.138Z,81.65
2018-08-16T02:38:16.893Z,81.42
2018-08-16T02:44:21.680Z,81.87
2018-08-16T02:50:26.376Z,81.93
2018-08-16T02:56:31.586Z,82.58
2018-08-16T03:02:37.528Z,82.50
2018-08-16T03:08:42.548Z,83.19
2018-08-16T03:14:47.287Z,83.52
2018-08-16T03:20:52.109Z,84.22
2018-08-16T03:26:56.837Z,83.12
2018-08-16T03:33:02.103Z,82.95
2018-08-16T03:39:09.578Z,83.51
2018-08-16T03:45:14.305Z,83.61
2018-08-16T03:51:19.257Z,83.28
2018-08-16T03:57:23.997Z,84.38
2018-08-16T04:03:29.578Z,84.79
2018-08-16T04:09:35.217Z,84.44
2018-08-16T04:15:39.937Z,83.78
2018-08-16T04:21:45.596Z,83.55
2018-08-16T04:27:51.341Z,83.05
2018-08-16T04:33:56.151Z,82.86
2018-08-16T04:40:01.427Z,82.20
2018-08-16T04:46:06.711Z,81.81
2018-08-16T04:52:11.641Z,81.18
2018-08-16T04:58:16.620Z,81.92
2018-08-16T05:04:21.750Z,82.27
2018-08-16T05:10:26.492Z,81.76
2018-08-16T05:16:31.623Z,80.62
2018-08-16T05:22:36.614Z,80.08
2018-08-16T05:28:41.437Z,79.36
2018-08-16T05:34:46.196Z,78.96
2018-08-16T05:40:50.996Z,80.39
2018-08-16T05:46:55.930Z,79.97
2018-08-16T05:53:01.294Z,79.23
2018-08-16T05:59:06.850Z,78.95
2018-08-16T06:05:13.228Z,76.62
2018-08-16T06:11:18.031Z,73.39
2018-08-16T06:17:23.093Z,72.43
2018-08-16T06:23:29.131Z,71.83
2018-08-16T06:29:34.307Z,71.95
2018-08-16T06:35:39.144Z,69.87
2018-08-16T06:41:44.656Z,68.54
2018-08-16T06:47:50.305Z,68.81
2018-08-16T06:53:55.149Z,66.30
2018-08-16T07:00:00.343Z,66.28
2018-08-16T07:06:05.223Z,64.51
2018-08-16T07:12:10.437Z,61.19
2018-08-16T07:18:15.340Z,60.97
2018-08-16T07:24:20.421Z,58.67
2018-08-16T07:30:25.728Z,57.36
2018-08-16T07:36:30.898Z,56.92
2018-08-16T07:42:36.095Z,54.74
2018-08-16T07:48:40.841Z,53.70
2018-08-16T07:54:45.901Z,51.52
2018-08-16T08:00:50.699Z,50.53
2018-08-16T08:06:55.438Z,51.19
2018-08-16T08:13:01.006Z,50.51
2018-08-16T08:19:06.557Z,49.25
2018-08-16T08:25:11.788Z,48.70
2018-08-16T08:31:16.872Z,47.17
2018-08-16T08:37:38.515Z,45.18
2018-08-16T08:44:00.387Z,44.56
2018-08-16T08:50:07.168Z,43.83
2018-08-16T08:57:33.693Z,43.24
2018-08-16T09:03:38.460Z,41.28
2018-08-16T09:11:10.128Z,42.16
2018-08-16T09:17:15.100Z,43.53
2018-08-16T09:23:20.222Z,44.52
2018-08-16T09:30:41.704Z,42.74
2018-08-16T09:36:46.481Z,41.00
2018-08-16T09:42:51.359Z,39.15
2018-08-16T09:48:56.258Z,39.56
2018-08-16T09:55:01.653Z,38.16
2018-08-16T10:01:13.031Z,36.77
2018-08-16T10:07:18.006Z,36.79
2018-08-16T10:13:22.735Z,36.78
2018-08-16T10:19:28.316Z,37.64
2018-08-16T10:25:34.244Z,36.85
2018-08-16T10:31:38.980Z,36.50
2018-08-16T10:37:43.695Z,35.91
2018-08-16T10:43:48.537Z,34.76
2018-08-16T10:49:53.333Z,33.22
2018-08-16T10:55:59.098Z,33.76
2018-08-16T11:02:04.897Z,32.67
2018-08-16T11:08:10.104Z,31.41
2018-08-16T11:14:14.793Z,27.85
2018-08-16T11:20:19.419Z,27.61
2018-08-16T11:26:24.136Z,25.93
2018-08-16T11:32:29.249Z,25.55
2018-08-16T11:38:34.519Z,26.10
2018-08-16T11:44:39.406Z,27.06
2018-08-16T11:50:44.194Z,26.43
2018-08-16T11:56:48.963Z,24.52
2018-08-16T12:02:53.691Z,24.17
2018-08-16T12:08:58.667Z,23.43
2018-08-16T12:15:04.036Z,24.14
2018-08-16T12:21:09.008Z,24.88
2018-08-16T12:27:13.697Z,21.70
2018-08-16T12:33:18.565Z,22.90
2018-08-16T12:39:23.263Z,21.25
2018-08-16T12:45:28.148Z,20.96
2018-08-16T12:51:33.533Z,21.90
2018-08-16T12:57:38.282Z,21.52
2018-08-16T13:03:43.171Z,22.12
2018-08-16T13:09:48.305Z,19.92
2018-08-16T13:15:53.212Z,19.77
2018-08-16T13:21:57.957Z,20.73
2018-08-16T13:28:04.901Z,18.48
2018-08-16T13:34:10.409Z,19.89
2018-08-16T13:40:15.273Z,19.86
2018-08-16T13:46:20.697Z,20.58
2018-08-16T13:52:25.445Z,21.13
2018-08-16T13:58:31.245Z,21.14
2018-08-16T14:04:36.953Z,22.07
2018-08-16T14:10:41.938Z,22.74
2018-08-16T14:16:46.737Z,22.77
2018-08-16T14:22:51.748Z,21.45
2018-08-16T14:28:56.736Z,22.42
2018-08-16T14:35:04.196Z,20.93
2018-08-16T14:41:09.010Z,22.19
2018-08-16T14:47:13.837Z,21.88
2018-08-16T14:53:18.488Z,21.77
2018-08-16T14:59:23.423Z,22.63
2018-08-16T15:05:29.475Z,22.58
2018-08-16T15:11:34.629Z,22.06
2018-08-16T15:17:39.365Z,23.38
2018-08-16T15:23:44.188Z,23.13
2018-08-16T15:29:48.930Z,23.85
2018-08-16T15:35:53.703Z,25.71
2018-08-16T15:41:58.427Z,25.93
2018-08-16T15:48:05.650Z,23.91
2018-08-16T15:54:10.598Z,21.72
2018-08-16T16:00:15.461Z,22.37
2018-08-16T16:06:20.256Z,21.46
2018-08-16T16:12:24.837Z,22.76
2018-08-16T16:18:29.643Z,21.19
2018-08-16T16:24:34.799Z,19.99
2018-08-16T16:30:39.787Z,20.19
2018-08-16T16:36:44.507Z,20.86
2018-08-16T16:50:27.043Z,20.96
2018-08-16T16:56:32.762Z,21.92
2018-08-16T17:02:37.942Z,22.81
2018-08-16T17:08:42.749Z,22.50
2018-08-16T17:14:47.386Z,23.43
2018-08-16T17:20:52.236Z,22.78
2018-08-16T17:26:57.026Z,23.04
2018-08-16T17:33:02.443Z,22.90
2018-08-16T17:39:08.281Z,24.78
2018-08-16T17:45:13.010Z,25.40
2018-08-16T17:51:17.684Z,23.82
2018-08-16T17:57:22.384Z,25.21
2018-08-16T18:03:27.166Z,25.10
2018-08-16T18:09:32.430Z,25.37
2018-08-16T18:15:37.554Z,26.74
2018-08-16T18:21:42.321Z,29.10
2018-08-16T18:27:47.049Z,31.57
2018-08-16T18:33:51.811Z,33.62
2018-08-16T18:39:56.997Z,36.79
2018-08-16T18:46:02.333Z,38.01
2018-08-16T18:52:07.165Z,40.76
2018-08-16T18:58:11.814Z,42.14
2018-08-16T19:04:16.491Z,42.62
2018-08-16T19:10:21.347Z,42.47
2018-08-16T19:16:26.045Z,44.42
2018-08-16T19:22:31.265Z,44.77
2018-08-16T19:28:36.920Z,46.41
2018-08-16T19:34:41.597Z,46.41
2018-08-16T19:40:46.698Z,47.23
2018-08-16T19:46:51.358Z,47.89
2018-08-16T19:52:56.024Z,47.14
2018-08-16T19:59:01.966Z,47.37
2018-08-16T20:05:07.470Z,47.92
2018-08-16T20:11:12.237Z,47.88
2018-08-16T20:17:16.964Z,48.17
2018-08-16T20:23:21.747Z,47.77
2018-08-16T20:29:26.487Z,47.73
2018-08-16T20:35:31.405Z,48.79
2018-08-16T20:41:36.238Z,50.19
2018-08-16T20:47:40.974Z,51.50
2018-08-16T20:53:45.592Z,51.96
2018-08-16T20:59:50.919Z,52.25
2018-08-16T21:05:55.638Z,52.91
2018-08-16T21:12:00.920Z,52.66
2018-08-16T21:18:05.893Z,53.17
2018-08-16T21:24:10.785Z,53.23
2018-08-16T21:30:15.675Z,54.44
2018-08-16T21:36:20.759Z,55.62
2018-08-16T21:42:25.556Z,56.10
2018-08-16T21:48:31.332Z,57.20
2018-08-16T21:54:36.342Z,57.46
2018-08-16T22:00:51.711Z,58.05
2018-08-16T22:08:30.299Z,57.70
2018-08-16T22:14:35.345Z,58.23
2018-08-16T22:20:40.259Z,58.86
2018-08-16T22:26:45.026Z,59.00
2018-08-16T22:32:50.054Z,58.72
2018-08-16T22:38:54.902Z,58.36
2018-08-16T22:44:59.939Z,58.94
2018-08-16T22:51:04.780Z,59.62
2018-08-16T22:57:09.482Z,59.47
2018-08-16T23:03:14.104Z,58.76
2018-08-16T23:09:18.825Z,59.84
2018-08-16T23:15:23.642Z,60.63
2018-08-16T23:21:28.548Z,60.13
2018-08-16T23:27:33.837Z,61.01
2018-08-16T23:33:38.943Z,61.11
2018-08-16T23:39:43.695Z,61.37
2018-08-16T23:45:48.352Z,61.96
2018-08-16T23:51:53.263Z,63.05
2018-08-16T23:57:58.697Z,63.09
